Terminal Aerodrome Forecast
Issued by NWS

Home | Current Version | Previous Version | Text Only | Print | Product List | Glossary On
Versions: 1 2 3 4 5 6 7 8 9 10 11 12 13 14 15 16 17 18 19 20 21
000
FTUS43 KILX 050520
TAFCMI
TAF
KCMI 050520Z 0506/0606 VRB03KT 6SM BR SKC
     FM050900 VRB03KT 4SM BR SKC
      TEMPO 0509/0512 2SM BR
     FM051300 13004KT P6SM SCT025
     FM051700 16005KT P6SM SCT035=

USA.gov is the U.S. government's official web portal to all federal, state and local government web resources and services.